Time;durP1;ratioP1;P1;durP2;ratioP2;P2;SDS_P1;SDS_P2;PMS_P1;PMS_P2;Temp;Humidity;BMP_temperature;BMP_pressure;BME280_temperature;BME280_humidity;BME280_pressure;Samples;Min_cycle;Max_cycle;Signal;HPM_P1;HPM_P2
2023/06/19 00:03:04;;;;;;;8.20;7.60;;;;;;;17.54;80.67;99751.13;10425583;28;20107;-73
2023/06/19 00:08:06;;;;;;;7.47;6.97;;;;;;;17.37;82.09;99752.19;10423998;28;20132;-73
2023/06/19 00:13:08;;;;;;;7.88;7.30;;;;;;;17.60;81.04;99745.38;10424022;28;20037;-73
2023/06/19 00:18:10;;;;;;;8.18;7.47;;;;;;;17.62;80.05;99740.84;10424287;28;20506;-73
2023/06/19 00:23:14;;;;;;;7.90;7.30;;;;;;;17.63;79.83;99741.69;10422849;28;20049;-73
2023/06/19 00:28:19;;;;;;;8.57;7.93;;;;;;;17.45;83.13;99741.09;10422511;28;20442;-73
2023/06/19 00:33:21;;;;;;;8.30;7.80;;;;;;;17.14;84.72;99743.03;10404791;28;20076;-74
2023/06/19 00:38:23;;;;;;;8.18;7.63;;;;;;;17.03;85.55;99734.88;10422822;28;20037;-73
2023/06/19 00:43:25;;;;;;;8.00;7.50;;;;;;;16.97;86.53;99745.06;10422411;28;20116;-73
2023/06/19 00:48:29;;;;;;;7.55;7.07;;;;;;;17.03;84.87;99745.50;10420745;28;20052;-74
2023/06/19 00:53:33;;;;;;;8.60;8.02;;;;;;;16.98;85.10;99738.78;10420839;28;20092;-73
2023/06/19 00:58:35;;;;;;;8.85;8.02;;;;;;;17.32;84.90;99738.38;10420660;28;20107;-74
2023/06/19 01:03:37;;;;;;;9.07;8.43;;;;;;;17.23;85.17;99738.09;10421840;28;20556;-73
2023/06/19 01:08:55;;;;;;;9.02;8.52;;;;;;;16.88;87.37;99735.88;10420146;28;20517;-73
2023/06/19 01:14:04;;;;;;;8.75;8.25;;;;;;;16.76;87.64;99744.59;10406426;28;20067;-73
2023/06/19 01:19:10;;;;;;;10.85;8.70;;;;;;;16.92;86.53;99744.50;10404078;28;20051;-73
2023/06/19 01:24:14;;;;;;;8.82;8.23;;;;;;;16.92;86.69;99720.59;10421583;28;20494;-73
2023/06/19 01:29:18;;;;;;;8.32;7.82;;;;;;;16.60;88.21;99720.75;10423711;28;20063;-73
2023/06/19 01:34:21;;;;;;;8.80;8.10;;;;;;;16.48;89.49;99724.19;10422053;28;20060;-73
2023/06/19 01:39:27;;;;;;;9.23;8.63;;;;;;;16.44;89.47;99715.56;10419902;28;20087;-73
2023/06/19 01:44:29;;;;;;;8.43;7.80;;;;;;;16.47;89.28;99712.72;10419130;28;20495;-73
2023/06/19 01:49:31;;;;;;;8.82;8.30;;;;;;;16.33;90.45;99704.72;10418893;28;20380;-73
2023/06/19 01:54:33;;;;;;;9.00;8.30;;;;;;;16.44;89.87;99702.28;10419239;28;20523;-73
2023/06/19 01:59:34;;;;;;;8.85;8.25;;;;;;;16.21;92.42;99700.19;10419743;28;20560;-73
2023/06/19 02:04:36;;;;;;;10.02;9.35;;;;;;;16.16;92.85;99695.16;10418290;28;20041;-73
2023/06/19 02:09:39;;;;;;;10.57;9.55;;;;;;;16.35;91.56;99689.59;10418480;28;20041;-73
2023/06/19 02:14:40;;;;;;;9.50;8.77;;;;;;;16.21;91.96;99687.78;10401514;28;20052;-72
2023/06/19 02:19:43;;;;;;;9.82;9.23;;;;;;;16.15;90.80;99688.97;10417567;28;20046;-73
2023/06/19 02:24:45;;;;;;;10.00;9.32;;;;;;;15.96;92.32;99684.88;10416458;28;20171;-73
2023/06/19 02:29:47;;;;;;;8.70;8.20;;;;;;;15.83;93.68;99682.09;10417263;28;20041;-73
2023/06/19 02:34:49;;;;;;;8.85;8.30;;;;;;;15.80;93.55;99679.63;10419727;28;20052;-73
2023/06/19 02:39:50;;;;;;;9.52;8.82;;;;;;;15.95;93.40;99676.06;10408450;28;20056;-72
2023/06/19 02:44:52;;;;;;;9.32;8.73;;;;;;;15.94;93.67;99671.72;10410414;28;20049;-72
2023/06/19 02:49:54;;;;;;;9.30;8.70;;;;;;;16.09;93.12;99677.91;10425174;28;20045;-72
2023/06/19 02:54:56;;;;;;;9.93;9.20;;;;;;;16.03;93.25;99670.31;10408966;28;20569;-73
2023/06/19 02:59:58;;;;;;;9.30;8.70;;;;;;;15.95;94.21;99669.94;10407241;28;20499;-73
2023/06/19 03:05:02;;;;;;;9.60;8.93;;;;;;;16.20;92.35;99669.28;10423842;28;20112;-73
2023/06/19 03:10:04;;;;;;;9.68;8.85;;;;;;;16.29;91.70;99666.94;10427798;28;20046;-74
2023/06/19 03:15:07;;;;;;;9.30;8.70;;;;;;;16.15;91.98;99675.72;10426106;28;20049;-74
2023/06/19 03:20:12;;;;;;;10.30;9.50;;;;;;;16.11;93.30;99668.03;10424293;28;20476;-73
2023/06/19 03:25:21;;;;;;;9.75;9.05;;;;;;;16.15;93.97;99669.56;10423872;28;20068;-73
2023/06/19 03:30:23;;;;;;;9.70;9.00;;;;;;;16.30;91.30;99670.44;10424884;28;20446;-72
2023/06/19 03:35:26;;;;;;;10.43;9.63;;;;;;;16.58;89.58;99673.09;10423371;28;20465;-73
2023/06/19 03:40:28;;;;;;;10.13;9.40;;;;;;;16.55;89.08;99665.31;10422781;28;20185;-72
2023/06/19 03:45:38;;;;;;;10.20;9.50;;;;;;;16.64;87.36;99663.88;10405874;28;20084;-73
2023/06/19 03:50:40;;;;;;;9.90;9.20;;;;;;;16.71;87.82;99667.03;10422442;28;20115;-73
2023/06/19 03:55:43;;;;;;;10.48;9.77;;;;;;;16.62;88.54;99668.47;10422136;28;20573;-73
2023/06/19 04:00:46;;;;;;;10.20;9.50;;;;;;;16.62;88.41;99661.34;10405802;28;20050;-73
2023/06/19 04:05:48;;;;;;;10.30;9.40;;;;;;;16.82;86.80;99670.75;10422200;28;20045;-74
2023/06/19 04:10:50;;;;;;;10.13;9.43;;;;;;;17.04;84.86;99661.41;10422236;28;20116;-74
2023/06/19 04:15:52;;;;;;;9.40;8.80;;;;;;;17.20;84.14;99663.91;10422049;28;20274;-73
2023/06/19 04:20:54;;;;;;;9.15;8.55;;;;;;;17.36;82.86;99659.31;10404179;28;20557;-73
2023/06/19 04:25:56;;;;;;;9.18;8.65;;;;;;;17.62;82.42;99681.53;10404431;28;20046;-73
2023/06/19 04:31:00;;;;;;;9.05;8.35;;;;;;;18.02;79.54;99689.50;10421900;28;20125;-73
2023/06/19 04:36:02;;;;;;;9.20;8.50;;;;;;;18.14;78.20;99680.66;10403693;28;20056;-73
2023/06/19 04:41:04;;;;;;;9.70;9.10;;;;;;;18.14;77.74;99676.19;10421576;28;20034;-73
2023/06/19 04:46:05;;;;;;;8.02;7.53;;;;;;;18.22;77.71;99675.69;10421178;28;20125;-73
2023/06/19 04:51:07;;;;;;;8.88;8.27;;;;;;;18.34;77.23;99674.84;10421085;28;20045;-73
2023/06/19 04:56:09;;;;;;;8.88;8.10;;;;;;;18.44;77.75;99683.03;10419551;28;20487;-75
2023/06/19 05:01:15;;;;;;;8.80;8.10;;;;;;;18.58;75.69;99682.06;10518178;22;20093;-71
2023/06/19 05:06:17;;;;;;;7.97;7.47;;;;;;;18.57;75.91;99678.53;10543217;28;20046;-72
2023/06/19 05:11:19;;;;;;;8.90;8.23;;;;;;;18.62;77.49;99681.72;10543295;28;20572;-72
2023/06/19 05:16:22;;;;;;;8.45;7.85;;;;;;;18.81;74.68;99688.44;10525488;28;20382;-71
2023/06/19 05:21:24;;;;;;;7.40;7.00;;;;;;;18.95;74.34;99687.44;10543934;28;20040;-72
2023/06/19 05:26:26;;;;;;;8.30;7.70;;;;;;;19.01;73.70;99687.03;10542814;28;20048;-72
2023/06/19 05:31:28;;;;;;;8.38;7.82;;;;;;;19.08;74.25;99689.13;10542486;28;20100;-71
2023/06/19 05:36:30;;;;;;;8.63;8.05;;;;;;;19.19;73.69;99684.84;10542188;28;20040;-71
2023/06/19 05:41:32;;;;;;;8.38;7.65;;;;;;;19.20;73.17;99683.88;10542879;28;20460;-71
2023/06/19 05:46:34;;;;;;;7.82;7.32;;;;;;;19.28;72.49;99686.81;10524156;28;20048;-71
2023/06/19 05:51:36;;;;;;;8.50;7.90;;;;;;;19.28;72.00;99693.00;10542220;28;20140;-71
2023/06/19 05:56:37;;;;;;;8.52;7.93;;;;;;;19.21;74.55;99686.41;10541394;28;20118;-70
2023/06/19 06:01:40;;;;;;;7.90;7.25;;;;;;;19.36;73.35;99693.28;10541036;28;20047;-72
2023/06/19 06:06:42;;;;;;;8.13;7.47;;;;;;;19.37;73.54;99694.13;10541701;28;20408;-72
2023/06/19 06:11:43;;;;;;;9.43;7.15;;;;;;;19.51;71.65;99693.13;10540429;28;20048;-72
2023/06/19 06:16:45;;;;;;;8.82;8.23;;;;;;;19.50;72.82;99702.94;10540705;28;20040;-72
2023/06/19 06:21:47;;;;;;;7.95;7.35;;;;;;;19.74;71.33;99708.28;10540857;28;20048;-72
2023/06/19 06:26:49;;;;;;;8.63;8.02;;;;;;;19.85;73.25;99710.16;10523569;28;20036;-72
2023/06/19 06:31:54;;;;;;;7.63;7.03;;;;;;;19.90;72.16;99714.16;10524168;28;20040;-72
2023/06/19 06:36:55;;;;;;;8.05;7.55;;;;;;;20.00;71.97;99716.97;10540145;28;20068;-71
2023/06/19 06:42:06;;;;;;;8.25;7.65;;;;;;;20.13;69.77;99720.41;10540272;28;20040;-70
2023/06/19 06:47:08;;;;;;;9.68;7.57;;;;;;;20.10;71.30;99722.50;10541010;28;20052;-71
2023/06/19 06:52:09;;;;;;;7.45;6.93;;;;;;;20.14;70.29;99730.16;10540187;28;20230;-71
2023/06/19 06:57:11;;;;;;;8.00;7.45;;;;;;;20.25;71.79;99717.78;10539916;28;20439;-71
2023/06/19 07:02:13;;;;;;;8.00;7.47;;;;;;;20.41;71.15;99727.19;10539926;28;20063;-71
2023/06/19 07:07:15;;;;;;;8.02;7.22;;;;;;;20.67;69.02;99724.31;10539122;28;20033;-70
2023/06/19 07:12:17;;;;;;;6.78;6.38;;;;;;;20.73;69.28;99728.34;10540395;28;20409;-72
2023/06/19 07:17:18;;;;;;;8.48;7.05;;;;;;;20.85;68.68;99733.56;10539641;28;20119;-71
2023/06/19 07:22:22;;;;;;;7.85;7.22;;;;;;;20.96;69.51;99737.19;10525620;28;20067;-70
2023/06/19 07:27:27;;;;;;;7.38;6.88;;;;;;;21.26;68.24;99728.53;10547600;28;20040;-71
2023/06/19 07:32:29;;;;;;;7.27;6.67;;;;;;;21.47;67.86;99736.66;10547415;28;20043;-71
2023/06/19 07:37:31;;;;;;;7.50;6.97;;;;;;;21.79;67.63;99726.00;10546502;28;20499;-70
2023/06/19 07:42:36;;;;;;;7.30;6.60;;;;;;;22.17;65.54;99728.97;10546892;28;20098;-71
2023/06/19 07:47:38;;;;;;;7.53;6.80;;;;;;;22.36;65.07;99727.44;10546261;28;20040;-71
2023/06/19 07:52:39;;;;;;;8.00;7.40;;;;;;;22.41;64.41;99727.88;10547047;28;20473;-71
2023/06/19 07:57:41;;;;;;;6.75;6.25;;;;;;;22.43;63.88;99733.94;10545881;28;20386;-70
2023/06/19 08:02:43;;;;;;;7.47;6.97;;;;;;;22.57;65.47;99735.44;10545312;28;20097;-71
2023/06/19 08:07:45;;;;;;;6.95;6.45;;;;;;;22.72;64.68;99739.47;10545328;28;20063;-70
2023/06/19 08:12:47;;;;;;;6.72;6.20;;;;;;;22.97;62.28;99742.72;10546425;28;20495;-71
2023/06/19 08:17:49;;;;;;;8.23;7.47;;;;;;;23.15;59.97;99741.97;10545341;28;20066;-71
2023/06/19 08:22:50;;;;;;;6.63;6.10;;;;;;;22.62;62.35;99751.94;10545457;28;20390;-72
2023/06/19 08:27:52;;;;;;;6.63;6.22;;;;;;;22.81;63.05;99754.75;10544504;28;20091;-71
2023/06/19 08:32:54;;;;;;;6.57;6.18;;;;;;;22.89;62.30;99756.78;10543248;28;20036;-71
2023/06/19 08:37:56;;;;;;;7.28;6.68;;;;;;;22.97;62.79;99762.31;10544839;28;20036;-71
2023/06/19 08:42:57;;;;;;;8.50;7.75;;;;;;;22.55;68.68;99738.25;10545178;28;20040;-70
2023/06/19 08:48:03;;;;;;;7.40;6.88;;;;;;;22.33;71.29;99746.44;10543404;28;20036;-70
2023/06/19 08:53:12;;;;;;;7.00;6.60;;;;;;;22.52;67.60;99754.59;10525611;28;20052;-71
2023/06/19 08:58:22;;;;;;;7.97;7.25;;;;;;;22.60;69.20;99753.94;10543020;28;20070;-67
2023/06/19 09:03:23;;;;;;;7.47;6.95;;;;;;;22.76;68.17;99757.00;10542226;28;20032;-68
2023/06/19 09:08:25;;;;;;;7.53;6.78;;;;;;;23.12;65.94;99760.13;10509179;28;20119;-68
2023/06/19 09:13:31;;;;;;;6.97;6.40;;;;;;;23.04;67.44;99765.31;10499289;28;20048;-68
2023/06/19 09:18:47;;;;;;;7.00;6.50;;;;;;;23.00;68.99;99763.91;10524428;28;20097;-68
2023/06/19 09:23:54;;;;;;;7.63;7.03;;;;;;;23.17;67.48;99749.84;10490567;28;20084;-68
2023/06/19 09:29:18;;;;;;;7.15;6.65;;;;;;;22.99;70.83;99756.84;10499350;28;20033;-68
2023/06/19 09:34:22;;;;;;;7.43;6.90;;;;;;;22.80;71.05;99765.59;10499311;28;20044;-69
2023/06/19 09:39:27;;;;;;;7.13;6.57;;;;;;;22.87;72.42;99762.25;10481603;28;20037;-69
2023/06/19 09:44:35;;;;;;;8.57;6.82;;;;;;;22.73;73.58;99756.41;10499480;28;20040;-68
2023/06/19 09:49:50;;;;;;;8.55;7.95;;;;;;;22.44;78.89;99750.88;10499125;28;20032;-68
2023/06/19 09:54:52;;;;;;;;;;;;;;;22.87;76.43;99748.00;10500070;28;20036;-68
2023/06/19 09:59:57;;;;;;;9.02;7.50;;;;;;;22.75;74.39;99747.22;10480907;28;19920;-68
2023/06/19 10:05:03;;;;;;;8.07;7.57;;;;;;;22.84;73.09;99741.09;10499427;28;20469;-68
2023/06/19 10:10:10;;;;;;;8.98;8.15;;;;;;;22.94;74.83;99754.56;10501086;28;20416;-68
2023/06/19 10:15:25;;;;;;;8.05;7.32;;;;;;;23.12;71.87;99752.09;10520256;28;20048;-68
2023/06/19 10:20:32;;;;;;;7.65;7.10;;;;;;;23.34;68.59;99748.34;10507327;28;20086;-68
2023/06/19 10:25:36;;;;;;;8.60;6.97;;;;;;;23.31;69.73;99743.25;10540583;28;20134;-68
2023/06/19 10:30:38;;;;;;;7.85;7.25;;;;;;;23.55;67.40;99738.38;10519005;28;20385;-68
2023/06/19 10:35:41;;;;;;;7.07;6.68;;;;;;;23.62;65.98;99733.28;10499452;28;20048;-68
2023/06/19 10:40:44;;;;;;;8.23;7.70;;;;;;;24.09;64.81;99726.28;10480384;28;20398;-68
2023/06/19 10:45:46;;;;;;;7.70;7.10;;;;;;;24.62;60.47;99730.31;10497929;28;20045;-68
2023/06/19 10:50:49;;;;;;;7.43;6.75;;;;;;;24.84;58.69;99718.34;10498030;28;20037;-68
2023/06/19 10:55:58;;;;;;;7.57;6.97;;;;;;;24.96;58.04;99725.22;10500949;28;20462;-68
2023/06/19 11:01:00;;;;;;;7.00;6.40;;;;;;;26.19;55.37;99731.94;10520463;22;20065;-72
2023/06/19 11:06:02;;;;;;;6.82;6.43;;;;;;;26.96;52.09;99736.53;10488528;28;20051;-72
2023/06/19 11:11:04;;;;;;;7.30;6.80;;;;;;;27.66;49.52;99725.47;10488802;28;20044;-73
2023/06/19 11:16:06;;;;;;;6.25;5.85;;;;;;;27.91;49.69;99720.97;10488642;28;20413;-73
2023/06/19 11:21:08;;;;;;;6.63;6.10;;;;;;;27.94;47.65;99728.75;10506147;28;20079;-72
2023/06/19 11:26:10;;;;;;;5.82;5.40;;;;;;;27.37;48.30;99725.91;10505376;28;20043;-73
2023/06/19 11:31:12;;;;;;;6.50;6.10;;;;;;;27.51;47.41;99719.03;10506379;28;20067;-73
2023/06/19 11:36:14;;;;;;;6.95;6.45;;;;;;;27.30;48.03;99712.22;10505242;28;20053;-72
2023/06/19 11:41:25;;;;;;;6.65;6.10;;;;;;;27.71;47.68;99696.09;10488950;28;20498;-73
2023/06/19 11:46:31;;;;;;;6.20;5.70;;;;;;;28.17;45.31;99694.63;10487260;28;20098;-74
2023/06/19 11:51:33;;;;;;;5.85;5.45;;;;;;;28.63;45.37;99703.03;10487800;28;20122;-74
2023/06/19 11:56:36;;;;;;;6.30;5.55;;;;;;;28.94;42.05;99702.25;10505717;28;20461;-74
2023/06/19 12:01:38;;;;;;;6.57;6.07;;;;;;;28.94;43.58;99699.53;10503996;28;20052;-73
2023/06/19 12:06:40;;;;;;;5.57;5.20;;;;;;;28.95;41.30;99698.50;10503370;28;20079;-73
2023/06/19 12:11:42;;;;;;;5.22;4.93;;;;;;;29.69;40.73;99687.34;10503057;28;20097;-74
2023/06/19 12:16:45;;;;;;;4.97;4.68;;;;;;;30.32;39.33;99683.44;10503614;28;20055;-73
2023/06/19 12:21:47;;;;;;;4.55;4.25;;;;;;;30.79;36.48;99679.56;10486323;28;20051;-73
2023/06/19 12:26:49;;;;;;;5.07;4.72;;;;;;;30.40;36.48;99681.50;10469127;28;20076;-73
2023/06/19 12:31:51;;;;;;;4.95;4.65;;;;;;;30.26;37.51;99676.91;10503567;28;20417;-73
2023/06/19 12:36:54;;;;;;;5.00;4.60;;;;;;;29.58;36.95;99675.09;10502397;28;20090;-73
2023/06/19 12:41:55;;;;;;;5.32;4.93;;;;;;;29.41;36.08;99671.59;10503044;28;20071;-73
2023/06/19 12:46:59;;;;;;;4.55;4.25;;;;;;;29.35;35.03;99658.75;10483956;28;20461;-73
2023/06/19 12:52:01;;;;;;;5.40;5.00;;;;;;;29.46;38.17;99650.25;10502175;28;20559;-72
2023/06/19 12:57:04;;;;;;;4.93;4.63;;;;;;;29.46;36.19;99650.25;10484264;28;20036;-71
2023/06/19 13:02:05;;;;;;;4.80;4.50;;;;;;;29.13;37.89;99647.75;10501469;28;20068;-71
2023/06/19 13:07:07;;;;;;;4.78;4.47;;;;;;;29.34;37.37;99643.53;10500834;28;20037;-70
2023/06/19 13:12:09;;;;;;;5.38;4.97;;;;;;;29.14;35.68;99645.88;10482986;28;20041;-71
2023/06/19 13:17:11;;;;;;;5.10;4.78;;;;;;;28.75;36.73;99635.88;10500455;28;20410;-70
2023/06/19 13:22:13;;;;;;;5.63;5.13;;;;;;;28.71;37.75;99641.81;10501947;28;20040;-69
2023/06/19 13:27:14;;;;;;;5.68;4.43;;;;;;;28.96;37.72;99631.78;10524582;28;20052;-71
2023/06/19 13:32:16;;;;;;;5.10;4.70;;;;;;;29.14;38.02;99626.94;10524354;28;20047;-71
2023/06/19 13:37:19;;;;;;;5.55;5.15;;;;;;;29.33;38.51;99617.50;10543445;28;20449;-71
2023/06/19 13:42:21;;;;;;;6.13;5.72;;;;;;;29.75;37.92;99624.31;10508660;28;20074;-71
2023/06/19 13:47:25;;;;;;;6.03;5.72;;;;;;;30.00;37.55;99609.53;10541375;28;20059;-71
2023/06/19 13:52:27;;;;;;;5.95;5.53;;;;;;;30.06;38.21;99618.78;10543871;28;20448;-72
2023/06/19 13:57:29;;;;;;;6.47;6.00;;;;;;;30.31;38.32;99616.69;10527124;28;20442;-73
2023/06/19 14:02:31;;;;;;;6.47;5.97;;;;;;;30.50;37.55;99621.53;10526122;28;20051;-73
2023/06/19 14:07:34;;;;;;;6.35;5.68;;;;;;;30.45;36.75;99612.28;10523226;28;20161;-72
2023/06/19 14:12:36;;;;;;;6.70;6.20;;;;;;;30.56;36.64;99601.00;10522756;28;20048;-72
2023/06/19 14:17:38;;;;;;;9.25;6.38;;;;;;;30.57;37.84;99606.22;10540536;28;20410;-72
2023/06/19 14:22:40;;;;;;;7.07;6.15;;;;;;;30.69;37.58;99600.31;10540190;28;20145;-72
2023/06/19 14:27:42;;;;;;;6.45;6.05;;;;;;;30.60;37.48;99594.16;10540765;28;20036;-71
2023/06/19 14:32:44;;;;;;;7.03;6.13;;;;;;;30.68;38.80;99604.91;10548483;28;20051;-71
2023/06/19 14:37:46;;;;;;;8.60;6.28;;;;;;;30.85;37.22;99594.69;10549713;28;20036;-72
2023/06/19 14:42:49;;;;;;;6.57;6.10;;;;;;;30.45;38.61;99599.56;10549537;28;20062;-71
2023/06/19 14:47:51;;;;;;;6.63;6.22;;;;;;;30.29;39.47;99591.66;10548791;28;20123;-72
2023/06/19 14:52:53;;;;;;;6.63;6.22;;;;;;;30.57;38.00;99595.38;10548888;28;20489;-71
2023/06/19 14:57:54;;;;;;;6.47;5.90;;;;;;;30.04;40.01;99597.28;10548405;28;20048;-72
2023/06/19 15:02:56;;;;;;;7.20;6.63;;;;;;;30.48;37.85;99601.09;10548944;28;20044;-72
2023/06/19 15:07:58;;;;;;;7.13;6.45;;;;;;;30.05;40.98;99606.25;10548134;28;20447;-72
2023/06/19 15:13:00;;;;;;;6.40;5.97;;;;;;;30.59;37.53;99606.88;10547866;28;20048;-72
2023/06/19 15:18:02;;;;;;;6.22;5.82;;;;;;;30.59;38.08;99606.88;10548050;28;20108;-73
2023/06/19 15:23:08;;;;;;;6.97;5.82;;;;;;;30.75;37.96;99605.00;10547059;28;20054;-72
2023/06/19 15:28:10;;;;;;;6.60;6.20;;;;;;;30.75;36.72;99602.28;10546836;28;20090;-72
2023/06/19 15:33:11;;;;;;;6.93;6.32;;;;;;;30.59;38.33;99604.16;10547686;28;20127;-71
2023/06/19 15:38:14;;;;;;;7.32;6.60;;;;;;;30.52;37.67;99602.38;10528652;28;20067;-72
2023/06/19 15:43:16;;;;;;;6.05;5.55;;;;;;;30.66;38.16;99605.06;10527995;28;20052;-71
2023/06/19 15:48:18;;;;;;;6.68;6.28;;;;;;;30.01;38.43;99599.50;10547555;28;20443;-72
2023/06/19 15:53:19;;;;;;;6.50;6.10;;;;;;;30.38;38.27;99595.94;10528793;28;20040;-72
2023/06/19 15:58:21;;;;;;;6.57;6.18;;;;;;;30.81;37.08;99601.53;10546135;28;20050;-72
2023/06/19 16:03:23;;;;;;;5.88;5.57;;;;;;;30.14;38.39;99603.31;10545691;28;20442;-72
2023/06/19 16:08:26;;;;;;;6.18;5.68;;;;;;;30.91;37.09;99599.38;10545326;28;20036;-72
2023/06/19 16:13:28;;;;;;;6.40;5.90;;;;;;;30.77;36.59;99582.09;10544944;28;20079;-72
2023/06/19 16:18:29;;;;;;;6.38;5.93;;;;;;;30.05;37.16;99593.53;10544384;28;20050;-72
2023/06/19 16:23:31;;;;;;;7.07;6.47;;;;;;;30.53;36.78;99585.91;10544201;28;20126;-72
2023/06/19 16:28:33;;;;;;;6.88;6.47;;;;;;;29.96;37.78;99594.66;10544031;28;20115;-72
2023/06/19 16:33:35;;;;;;;5.97;5.57;;;;;;;29.72;38.90;99586.78;10544255;28;20130;-72
2023/06/19 16:38:37;;;;;;;6.30;5.80;;;;;;;29.69;38.98;99587.13;10526480;28;20054;-72
2023/06/19 16:43:39;;;;;;;6.10;5.70;;;;;;;29.96;38.29;99582.97;10544490;28;20038;-73
2023/06/19 16:48:41;;;;;;;6.53;6.03;;;;;;;29.66;39.57;99580.19;10545745;28;20482;-74
2023/06/19 16:53:42;;;;;;;6.57;6.07;;;;;;;29.58;38.59;99581.13;10544465;28;20052;-74
2023/06/19 16:58:44;;;;;;;7.05;5.80;;;;;;;29.28;39.81;99595.56;10561681;22;20485;-68
2023/06/19 17:03:46;;;;;;;7.03;6.53;;;;;;;28.82;40.51;99601.72;10542002;28;20044;-70
2023/06/19 17:08:49;;;;;;;6.75;6.10;;;;;;;28.57;40.46;99600.97;10523954;28;20132;-71
2023/06/19 17:13:51;;;;;;;6.93;6.25;;;;;;;28.60;40.97;99597.09;10541609;28;20044;-72
2023/06/19 17:18:53;;;;;;;6.50;6.00;;;;;;;28.34;42.65;99594.63;10541396;28;20115;-71
2023/06/19 17:23:55;;;;;;;6.63;6.10;;;;;;;27.96;43.28;99594.34;10541667;28;20048;-71
2023/06/19 17:28:57;;;;;;;7.47;6.97;;;;;;;27.79;42.14;99596.22;10540988;28;20505;-71
2023/06/19 17:33:59;;;;;;;7.43;6.75;;;;;;;27.56;43.81;99590.63;10540661;28;20054;-71
2023/06/19 17:39:01;;;;;;;7.28;6.82;;;;;;;27.35;46.76;99592.97;10541506;28;20070;-71
2023/06/19 17:44:04;;;;;;;7.07;6.68;;;;;;;27.25;47.82;99598.53;10522810;28;20123;-70
2023/06/19 17:49:06;;;;;;;7.57;7.07;;;;;;;27.05;50.63;99597.97;10540783;28;20119;-70
2023/06/19 17:54:08;;;;;;;8.20;7.60;;;;;;;26.98;51.50;99599.63;10540427;28;20054;-70
2023/06/19 17:59:13;;;;;;;7.65;7.15;;;;;;;26.76;52.53;99603.78;10522572;28;20469;-71
2023/06/19 18:04:15;;;;;;;8.68;7.72;;;;;;;26.65;53.12;99606.75;10540113;28;20071;-70
2023/06/19 18:09:17;;;;;;;8.57;7.78;;;;;;;26.71;54.75;99606.13;10539907;28;20119;-70
2023/06/19 18:14:21;;;;;;;9.02;8.32;;;;;;;26.63;54.13;99611.47;10540534;28;20090;-70
2023/06/19 18:19:23;;;;;;;8.82;7.93;;;;;;;26.29;55.25;99608.75;10539671;28;20067;-70
2023/06/19 18:24:25;;;;;;;9.13;8.02;;;;;;;26.13;55.90;99606.81;10539837;28;20509;-70
2023/06/19 18:29:30;;;;;;;7.28;6.68;;;;;;;26.04;56.80;99614.00;10539675;28;20044;-70
2023/06/19 18:34:32;;;;;;;7.78;7.25;;;;;;;25.99;59.27;99616.31;10539561;28;20036;-70
2023/06/19 18:39:34;;;;;;;8.35;7.55;;;;;;;25.86;59.51;99610.50;10538957;28;20047;-69
2023/06/19 18:44:36;;;;;;;11.98;11.07;;;;;;;25.47;60.94;99610.81;10539997;28;20524;-69
2023/06/19 18:49:37;;;;;;;11.80;11.07;;;;;;;25.30;62.84;99609.81;10521043;28;20094;-70
2023/06/19 18:54:39;;;;;;;9.15;8.65;;;;;;;25.12;63.85;99617.88;10539440;28;20044;-70
2023/06/19 18:59:41;;;;;;;9.23;8.63;;;;;;;24.87;64.28;99613.19;10538966;28;20431;-70
2023/06/19 19:04:43;;;;;;;9.40;8.60;;;;;;;24.81;65.69;99614.66;10539636;28;20050;-70
2023/06/19 19:09:45;;;;;;;9.02;8.43;;;;;;;24.90;65.33;99620.97;10538954;28;20512;-71
2023/06/19 19:14:47;;;;;;;9.52;8.93;;;;;;;24.48;66.83;99625.97;10538543;28;20044;-69
2023/06/19 19:19:49;;;;;;;9.15;8.45;;;;;;;24.11;67.75;99638.34;10546643;28;20121;-69
2023/06/19 19:24:50;;;;;;;9.57;8.88;;;;;;;23.98;68.87;99637.81;10528126;28;20044;-70
2023/06/19 19:29:52;;;;;;;9.45;8.85;;;;;;;24.01;68.83;99647.44;10545880;28;20044;-71
2023/06/19 19:34:55;;;;;;;9.23;8.57;;;;;;;23.71;69.88;99640.41;10545823;28;21443;-70
2023/06/19 19:39:58;;;;;;;9.88;9.20;;;;;;;23.34;70.69;99643.75;10545500;28;20489;-71
2023/06/19 19:45:00;;;;;;;10.02;9.32;;;;;;;23.24;70.52;99637.50;10545211;28;20066;-70
2023/06/19 19:50:06;;;;;;;10.65;10.00;;;;;;;23.21;70.38;99644.03;10529172;28;20078;-69
2023/06/19 19:55:11;;;;;;;10.80;10.00;;;;;;;23.27;69.74;99653.34;10545021;28;20051;-70
2023/06/19 20:00:14;;;;;;;11.25;10.45;;;;;;;23.04;71.67;99658.09;10545372;28;20040;-71
2023/06/19 20:05:16;;;;;;;11.40;10.57;;;;;;;23.02;69.98;99660.94;10544477;28;20050;-71
2023/06/19 20:10:17;;;;;;;10.75;10.05;;;;;;;22.99;69.24;99674.59;10525614;28;20036;-70
2023/06/19 20:15:19;;;;;;;10.90;10.13;;;;;;;22.97;69.18;99675.69;10543966;28;20044;-71
2023/06/19 20:20:21;;;;;;;12.27;11.38;;;;;;;22.98;71.64;99672.06;10525204;28;20075;-71
2023/06/19 20:25:23;;;;;;;12.25;11.45;;;;;;;22.99;71.49;99677.28;10543767;28;20081;-71
2023/06/19 20:30:26;;;;;;;13.25;11.93;;;;;;;22.92;71.54;99676.13;10543017;28;20111;-71
2023/06/19 20:35:28;;;;;;;12.45;11.25;;;;;;;22.65;73.57;99669.50;10525167;28;20132;-71
2023/06/19 20:40:30;;;;;;;12.10;11.07;;;;;;;22.45;74.37;99675.75;10542979;28;20513;-70
2023/06/19 20:45:31;;;;;;;12.85;11.75;;;;;;;22.45;75.61;99674.91;10543028;28;20051;-69
2023/06/19 20:50:34;;;;;;;13.85;12.80;;;;;;;22.37;76.40;99680.94;10543784;28;20062;-70
2023/06/19 20:55:35;;;;;;;13.18;12.27;;;;;;;22.29;75.58;99681.59;10542465;28;20051;-69
2023/06/19 21:00:37;;;;;;;14.20;12.18;;;;;;;22.07;76.30;99677.19;10542456;28;20127;-69
2023/06/19 21:05:39;;;;;;;14.27;13.02;;;;;;;22.02;77.38;99683.91;10542488;28;20054;-69
2023/06/19 21:10:42;;;;;;;13.48;12.48;;;;;;;22.29;75.91;99688.78;10542212;28;20080;-70
2023/06/19 21:15:44;;;;;;;14.23;13.02;;;;;;;22.03;76.95;99694.47;10541924;28;20066;-70
2023/06/19 21:20:47;;;;;;;13.43;12.48;;;;;;;21.78;77.57;99705.53;10541636;28;20044;-70
2023/06/19 21:25:49;;;;;;;13.45;12.38;;;;;;;21.70;78.59;99697.34;10541537;28;20052;-70
2023/06/19 21:30:50;;;;;;;14.90;13.80;;;;;;;21.71;78.29;99707.06;10540843;28;20047;-70
2023/06/19 21:35:52;;;;;;;12.55;11.75;;;;;;;21.80;79.59;99698.25;10541249;28;20123;-70
2023/06/19 21:40:54;;;;;;;13.52;12.63;;;;;;;21.76;79.72;99705.69;10540125;28;20048;-70
2023/06/19 21:45:59;;;;;;;13.15;11.93;;;;;;;21.57;79.80;99705.53;10541268;28;20119;-70
2023/06/19 21:51:01;;;;;;;15.93;14.68;;;;;;;21.41;80.64;99696.06;10540282;28;20094;-70
2023/06/19 21:56:03;;;;;;;15.95;14.85;;;;;;;21.30;80.51;99705.94;10540602;28;20109;-70
2023/06/19 22:01:05;;;;;;;16.40;15.13;;;;;;;21.40;82.08;99706.91;10522855;28;20040;-69
2023/06/19 22:06:06;;;;;;;18.15;16.63;;;;;;;21.11;83.31;99712.75;10539841;28;20115;-69
2023/06/19 22:11:08;;;;;;;16.77;15.45;;;;;;;20.88;84.20;99703.91;10521562;28;20127;-68
2023/06/19 22:16:10;;;;;;;17.85;14.77;;;;;;;21.36;81.23;99718.81;10539859;28;20048;-70
2023/06/19 22:21:12;;;;;;;14.85;13.75;;;;;;;21.09;81.27;99719.22;10540354;28;20040;-69
2023/06/19 22:26:14;;;;;;;12.95;12.00;;;;;;;21.29;79.24;99718.41;10539398;28;20040;-69
2023/06/19 22:31:15;;;;;;;13.73;12.65;;;;;;;21.39;79.80;99718.59;10539358;28;20512;-69
2023/06/19 22:36:17;;;;;;;13.82;12.93;;;;;;;21.14;81.32;99720.53;10539234;28;20493;-69
2023/06/19 22:41:19;;;;;;;13.65;12.65;;;;;;;20.92;81.63;99713.38;10539271;28;20115;-69
2023/06/19 22:46:20;;;;;;;12.30;11.60;;;;;;;20.78;82.55;99721.66;10539522;28;20060;-69
2023/06/19 22:51:22;;;;;;;13.45;12.45;;;;;;;20.65;83.18;99721.75;10523596;28;20123;-69
2023/06/19 22:56:25;;;;;;;14.52;13.52;;;;;;;20.68;84.00;99728.69;10548075;28;20040;-68
2023/06/19 23:01:30;;;;;;;14.07;13.15;;;;;;;20.59;84.18;99735.59;10542552;22;20072;-73
2023/06/19 23:06:42;;;;;;;13.40;12.52;;;;;;;20.48;84.68;99735.56;10489808;28;20044;-74
2023/06/19 23:11:48;;;;;;;12.57;11.68;;;;;;;20.45;85.52;99735.78;10506982;28;20040;-73
2023/06/19 23:16:49;;;;;;;14.03;13.13;;;;;;;20.50;86.72;99736.31;10506802;28;20071;-73
2023/06/19 23:21:51;;;;;;;13.02;12.13;;;;;;;20.51;86.94;99730.00;10507169;28;20048;-73